Red Hook, NY

3:21 AM EDT on September 27, 2016 (GMT -0400)
Red Hook | | Change Station

Elev 256 ft 42.01 °N, 73.85 °W | Updated 33 seconds ago

Rain
Rain Mist
57.1 °F
Feels Like 57.1 °F
N
0.8
Wind Variable Wind from SSW
Gusts 2.0 mph

Today
High -- | Low -- °F
--% Chance of Precip.
Yesterday
High -- | Low -- °F
Precip. -- in
Pressure 29.91 in
Visibility 3.0 miles
Clouds Few 2200 ft
Overcast 4000 ft
Dew Point 39 °F
Humidity 50%
Rainfall 0.16 in
Snow Depth Not available.
6:48 AM 6:43 PM
Waning Crescent, 13% visible
SPECI KPOU 270715Z AUTO 00000KT 3SM RA BR FEW022 OVC040 16/16 A2991 RMK AO2 P0012 T01560156
Pressure 29.91 in
Visibility 3.0 miles
Clouds Few 2200 ft
Overcast 4000 ft
Dew Point 39 °F
Humidity 50%
Rainfall 0.16 in
Snow Depth Not available.
6:48 AM 6:43 PM
Waning Crescent, 13% visible
SPECI KPOU 270715Z AUTO 00000KT 3SM RA BR FEW022 OVC040 16/16 A2991 RMK AO2 P0012 T01560156

10-Day Weather Forecast

Almanac

Astronomy

Sep. 27, 2016 Rise Set
Actual Time
Civil Twilight
Nautical Twilight
Astronomical Twilight
Moon
Length of Visible Light
Length of Day
Tomorrow will be .
, % of the Moon is Illuminated

Today's Extremes

State Highs State Lows

Community

WunderPhotos

Upload Photos

1,942,040 photos uploaded!

WunderBlog® & News

Nearby

Air Quality

  Air Quality AQ Index Pollutant
Not available.

Snow Depth

Station Depth Elevation

Earthquake Activity

City Distance Mag. Time & Date
Minimum magnitude displayed is 2.5.

Coastal Water Temperatures

Place Temperature

Stations

Nearby Weather Stations

Station Location Temp. Windchill Dew Point Humidity Wind Precip. Elev Updated Type
                   

Watches & Warnings

There are currently no watches in effect.